Terminal Aerodrome Forecast
Issued by NWS

Current Version | Previous Version | Text Only | Print | Product List | Glossary On
Versions: 1 2 3 4 5 6 7 8 9 10 11 12 13 14 15 16 17 18 19 20 21 22 23 24 25 26 27 28 29 30 31 32 33 34 35 36 37 38 39 40 41 42 43 44 45 46 47 48 49 50
000
FTUS43 KMKX 261128
TAFENW
TAF
KENW 261128Z 2612/2712 20011KT P6SM SCT012
      TEMPO 2612/2614 BKN012
     FM261600 16012KT P6SM VCTS BKN070CB
     FM261800 15013G20KT P6SM SHRA OVC035
     FM262000 17013G22KT P6SM VCTS BKN035CB
     FM270000 20012KT P6SM BKN040
     FM270200 22011G19KT P6SM SCT050
     FM271100 24009KT P6SM BKN035=

USA.gov is the U.S. government's official web portal to all federal, state and local government web resources and services.